Ecclesfield, United Kingdom
Current Conditions -  °F | °C
As of 3:20 PM on Monday 22 Dec 2014 (Local Time) from EGCN Reporting Station
Broken Clouds Broken Clouds  
Wind Chill: 57°   Ceiling: 2800
Heat Index: 57°   Visibility: 6mi
Dew Point: 50°   Wind: 24mph
Humidity: 77%   Direction: 230°SW
Pressure: 29.83"   Gusts: 38mph
Location:  53.45°N, 1.47°W
Report Text: EGCN 221520Z 23021G33KT 9999 BKN028 BKN034 14/10 Q1010
Loading
Personal Weather Stations






























Interactive Weather Map New forecast layout! Learn more

10-Day Weather Forecast

Advertisements
Track Severe Weather on mobile